Cibolo, Texas
Current Conditions -  °F | °C
As of 9:58 AM on Monday 24 Nov 2014 (Local Time) from KRND Reporting Station
Clear Clear  
Wind Chill: 57°   Ceiling: Unl
Heat Index: 57°   Visibility: 10mi
Dew Point: 35°   Wind: 9mph
Humidity: 43%   Direction: 340°NNW
Pressure: 30.11"   Gusts: NA
Location:  29.56°N, 98.23°W
Report Text: KRND 241558Z AUTO 34008KT 10SM CLR 14/01 A3011 RMK AO2 SLP193 T01380014
Loading
Personal Weather Stations






























Interactive Weather Map New forecast layout! Learn more

10-Day Weather Forecast

Advertisements
Track Severe Weather on mobile